sensor_id;sensor_type;location;lat;lon;timestamp;temperature;humidity
45044;DHT22;30784;48.490;9.688;2024-03-17T00:01:36;10.00;58.10
45044;DHT22;30784;48.490;9.688;2024-03-17T00:04:01;10.00;58.30
45044;DHT22;30784;48.490;9.688;2024-03-17T00:06:28;9.90;58.40
45044;DHT22;30784;48.490;9.688;2024-03-17T00:08:53;9.90;58.60
45044;DHT22;30784;48.490;9.688;2024-03-17T00:11:20;9.80;58.70
45044;DHT22;30784;48.490;9.688;2024-03-17T00:13:46;9.80;58.80
45044;DHT22;30784;48.490;9.688;2024-03-17T00:16:11;9.80;58.80
45044;DHT22;30784;48.490;9.688;2024-03-17T00:18:38;9.70;58.90
45044;DHT22;30784;48.490;9.688;2024-03-17T00:21:04;9.80;59.10
45044;DHT22;30784;48.490;9.688;2024-03-17T00:23:30;9.70;59.00
45044;DHT22;30784;48.490;9.688;2024-03-17T00:25:55;9.70;59.10
45044;DHT22;30784;48.490;9.688;2024-03-17T00:28:21;9.70;59.20
45044;DHT22;30784;48.490;9.688;2024-03-17T00:30:46;9.70;59.40
45044;DHT22;30784;48.490;9.688;2024-03-17T00:33:12;9.70;59.40
45044;DHT22;30784;48.490;9.688;2024-03-17T00:35:39;9.70;59.40
45044;DHT22;30784;48.490;9.688;2024-03-17T00:38:05;9.70;59.50
45044;DHT22;30784;48.490;9.688;2024-03-17T00:40:38;9.70;59.40
45044;DHT22;30784;48.490;9.688;2024-03-17T00:43:06;9.70;59.50
45044;DHT22;30784;48.490;9.688;2024-03-17T00:45:32;9.70;59.60
45044;DHT22;30784;48.490;9.688;2024-03-17T00:47:58;9.70;59.80
45044;DHT22;30784;48.490;9.688;2024-03-17T00:50:24;9.70;59.90
45044;DHT22;30784;48.490;9.688;2024-03-17T00:52:50;9.70;60.00
45044;DHT22;30784;48.490;9.688;2024-03-17T00:55:15;9.70;60.10
45044;DHT22;30784;48.490;9.688;2024-03-17T00:57:41;9.70;60.10
45044;DHT22;30784;48.490;9.688;2024-03-17T01:00:07;9.70;60.20
45044;DHT22;30784;48.490;9.688;2024-03-17T01:02:37;9.70;60.10
45044;DHT22;30784;48.490;9.688;2024-03-17T01:05:03;9.70;60.10
45044;DHT22;30784;48.490;9.688;2024-03-17T01:07:31;9.70;60.00
45044;DHT22;30784;48.490;9.688;2024-03-17T01:09:56;9.70;60.10
45044;DHT22;30784;48.490;9.688;2024-03-17T01:12:22;9.80;60.20
45044;DHT22;30784;48.490;9.688;2024-03-17T01:14:47;9.70;60.00
45044;DHT22;30784;48.490;9.688;2024-03-17T01:17:13;9.70;60.10
45044;DHT22;30784;48.490;9.688;2024-03-17T01:19:39;9.70;60.10
45044;DHT22;30784;48.490;9.688;2024-03-17T01:22:04;9.70;60.00
45044;DHT22;30784;48.490;9.688;2024-03-17T01:24:30;9.70;60.00
45044;DHT22;30784;48.490;9.688;2024-03-17T01:27:00;9.70;59.90
45044;DHT22;30784;48.490;9.688;2024-03-17T01:29:26;9.70;60.00
45044;DHT22;30784;48.490;9.688;2024-03-17T01:31:52;9.70;59.80
45044;DHT22;30784;48.490;9.688;2024-03-17T01:34:20;9.70;59.80
45044;DHT22;30784;48.490;9.688;2024-03-17T01:36:46;9.70;59.70
45044;DHT22;30784;48.490;9.688;2024-03-17T01:39:12;9.70;59.70
45044;DHT22;30784;48.490;9.688;2024-03-17T01:41:37;9.70;59.80
45044;DHT22;30784;48.490;9.688;2024-03-17T01:44:03;9.70;59.80
45044;DHT22;30784;48.490;9.688;2024-03-17T01:46:28;9.70;59.90
45044;DHT22;30784;48.490;9.688;2024-03-17T01:48:54;9.70;59.90
45044;DHT22;30784;48.490;9.688;2024-03-17T01:51:20;9.60;59.80
45044;DHT22;30784;48.490;9.688;2024-03-17T01:53:47;9.60;59.90
45044;DHT22;30784;48.490;9.688;2024-03-17T01:56:14;9.60;60.10
45044;DHT22;30784;48.490;9.688;2024-03-17T01:58:44;9.60;60.30
45044;DHT22;30784;48.490;9.688;2024-03-17T02:01:11;9.60;60.40
45044;DHT22;30784;48.490;9.688;2024-03-17T02:03:36;9.60;60.30
45044;DHT22;30784;48.490;9.688;2024-03-17T02:06:02;9.60;60.40
45044;DHT22;30784;48.490;9.688;2024-03-17T02:08:27;9.60;60.50
45044;DHT22;30784;48.490;9.688;2024-03-17T02:10:54;9.60;60.50
45044;DHT22;30784;48.490;9.688;2024-03-17T02:13:21;9.60;60.60
45044;DHT22;30784;48.490;9.688;2024-03-17T02:15:47;9.60;60.90
45044;DHT22;30784;48.490;9.688;2024-03-17T02:18:12;9.60;60.90
45044;DHT22;30784;48.490;9.688;2024-03-17T02:20:39;9.60;61.00
45044;DHT22;30784;48.490;9.688;2024-03-17T02:23:23;9.60;60.90
45044;DHT22;30784;48.490;9.688;2024-03-17T02:25:53;9.60;61.10
45044;DHT22;30784;48.490;9.688;2024-03-17T02:28:18;9.60;61.10
45044;DHT22;30784;48.490;9.688;2024-03-17T02:30:44;9.60;61.20
45044;DHT22;30784;48.490;9.688;2024-03-17T02:33:10;9.70;61.40
45044;DHT22;30784;48.490;9.688;2024-03-17T02:35:35;9.70;61.40
45044;DHT22;30784;48.490;9.688;2024-03-17T02:38:01;9.70;61.50
45044;DHT22;30784;48.490;9.688;2024-03-17T02:40:27;9.70;61.50
45044;DHT22;30784;48.490;9.688;2024-03-17T02:42:54;9.70;61.40
45044;DHT22;30784;48.490;9.688;2024-03-17T02:45:19;9.70;61.60
45044;DHT22;30784;48.490;9.688;2024-03-17T02:47:46;9.70;61.60
45044;DHT22;30784;48.490;9.688;2024-03-17T02:50:12;9.70;61.70
45044;DHT22;30784;48.490;9.688;2024-03-17T02:52:37;9.70;61.70
45044;DHT22;30784;48.490;9.688;2024-03-17T02:55:03;9.80;61.60
45044;DHT22;30784;48.490;9.688;2024-03-17T02:57:29;9.80;61.70
45044;DHT22;30784;48.490;9.688;2024-03-17T02:59:56;9.80;61.60
45044;DHT22;30784;48.490;9.688;2024-03-17T03:02:22;9.80;61.70
45044;DHT22;30784;48.490;9.688;2024-03-17T03:04:47;9.80;61.70
45044;DHT22;30784;48.490;9.688;2024-03-17T03:07:13;9.90;61.70
45044;DHT22;30784;48.490;9.688;2024-03-17T03:09:38;9.90;61.70
45044;DHT22;30784;48.490;9.688;2024-03-17T03:12:04;9.90;61.80
45044;DHT22;30784;48.490;9.688;2024-03-17T03:14:31;9.90;61.80
45044;DHT22;30784;48.490;9.688;2024-03-17T03:16:57;10.00;61.90
45044;DHT22;30784;48.490;9.688;2024-03-17T03:19:23;10.00;61.80
45044;DHT22;30784;48.490;9.688;2024-03-17T03:21:49;10.00;61.70
45044;DHT22;30784;48.490;9.688;2024-03-17T03:24:15;10.00;61.80
45044;DHT22;30784;48.490;9.688;2024-03-17T03:26:41;10.00;61.70
45044;DHT22;30784;48.490;9.688;2024-03-17T03:29:06;10.00;61.80
45044;DHT22;30784;48.490;9.688;2024-03-17T03:31:32;10.00;61.80
45044;DHT22;30784;48.490;9.688;2024-03-17T03:33:59;10.00;61.80
45044;DHT22;30784;48.490;9.688;2024-03-17T03:36:27;10.00;61.80
45044;DHT22;30784;48.490;9.688;2024-03-17T03:38:52;10.10;61.90
45044;DHT22;30784;48.490;9.688;2024-03-17T03:41:19;10.10;61.90
45044;DHT22;30784;48.490;9.688;2024-03-17T03:43:44;10.10;61.80
45044;DHT22;30784;48.490;9.688;2024-03-17T03:46:12;10.10;61.90
45044;DHT22;30784;48.490;9.688;2024-03-17T03:48:37;10.10;61.90
45044;DHT22;30784;48.490;9.688;2024-03-17T03:51:06;10.10;61.80
45044;DHT22;30784;48.490;9.688;2024-03-17T03:53:33;10.20;61.80
45044;DHT22;30784;48.490;9.688;2024-03-17T03:55:58;10.20;61.80
45044;DHT22;30784;48.490;9.688;2024-03-17T03:58:29;10.30;61.90
45044;DHT22;30784;48.490;9.688;2024-03-17T04:00:55;10.20;61.70
45044;DHT22;30784;48.490;9.688;2024-03-17T04:03:21;10.20;61.80
45044;DHT22;30784;48.490;9.688;2024-03-17T04:05:47;10.20;61.80
45044;DHT22;30784;48.490;9.688;2024-03-17T04:08:13;10.20;61.90
45044;DHT22;30784;48.490;9.688;2024-03-17T04:10:38;10.20;61.90
45044;DHT22;30784;48.490;9.688;2024-03-17T04:13:04;10.20;61.90
45044;DHT22;30784;48.490;9.688;2024-03-17T04:15:29;10.20;61.80
45044;DHT22;30784;48.490;9.688;2024-03-17T04:17:55;10.30;61.80
45044;DHT22;30784;48.490;9.688;2024-03-17T04:20:20;10.30;61.80
45044;DHT22;30784;48.490;9.688;2024-03-17T04:22:46;10.30;61.80
45044;DHT22;30784;48.490;9.688;2024-03-17T04:25:13;10.30;61.80
45044;DHT22;30784;48.490;9.688;2024-03-17T04:27:39;10.30;61.70
45044;DHT22;30784;48.490;9.688;2024-03-17T04:30:06;10.30;61.80
45044;DHT22;30784;48.490;9.688;2024-03-17T04:32:32;10.30;61.90
45044;DHT22;30784;48.490;9.688;2024-03-17T04:34:58;10.30;61.90
45044;DHT22;30784;48.490;9.688;2024-03-17T04:37:23;10.40;61.90
45044;DHT22;30784;48.490;9.688;2024-03-17T04:39:50;10.40;62.00
45044;DHT22;30784;48.490;9.688;2024-03-17T04:42:17;10.40;61.90
45044;DHT22;30784;48.490;9.688;2024-03-17T04:44:43;10.40;61.90
45044;DHT22;30784;48.490;9.688;2024-03-17T04:47:09;10.50;62.00
45044;DHT22;30784;48.490;9.688;2024-03-17T04:49:40;10.40;61.80
45044;DHT22;30784;48.490;9.688;2024-03-17T04:52:06;10.40;61.80
45044;DHT22;30784;48.490;9.688;2024-03-17T04:54:32;10.50;61.70
45044;DHT22;30784;48.490;9.688;2024-03-17T04:56:58;10.50;61.70
45044;DHT22;30784;48.490;9.688;2024-03-17T04:59:24;10.60;61.80
45044;DHT22;30784;48.490;9.688;2024-03-17T05:01:50;10.50;61.70
45044;DHT22;30784;48.490;9.688;2024-03-17T05:04:15;10.50;61.80
45044;DHT22;30784;48.490;9.688;2024-03-17T05:06:41;10.50;61.70
45044;DHT22;30784;48.490;9.688;2024-03-17T05:09:08;10.50;61.60
45044;DHT22;30784;48.490;9.688;2024-03-17T05:11:33;10.60;61.60
45044;DHT22;30784;48.490;9.688;2024-03-17T05:14:00;10.60;61.60
45044;DHT22;30784;48.490;9.688;2024-03-17T05:16:26;10.60;61.60
45044;DHT22;30784;48.490;9.688;2024-03-17T05:18:55;10.60;61.60
45044;DHT22;30784;48.490;9.688;2024-03-17T05:21:20;10.60;61.50
45044;DHT22;30784;48.490;9.688;2024-03-17T05:23:47;10.60;61.50
45044;DHT22;30784;48.490;9.688;2024-03-17T05:26:14;10.60;61.50
45044;DHT22;30784;48.490;9.688;2024-03-17T05:28:40;10.60;61.40
45044;DHT22;30784;48.490;9.688;2024-03-17T05:31:05;10.60;61.30
45044;DHT22;30784;48.490;9.688;2024-03-17T05:33:31;10.60;61.30
45044;DHT22;30784;48.490;9.688;2024-03-17T05:35:58;10.50;61.30
45044;DHT22;30784;48.490;9.688;2024-03-17T05:38:25;10.50;61.40
45044;DHT22;30784;48.490;9.688;2024-03-17T05:41:02;10.40;61.50
45044;DHT22;30784;48.490;9.688;2024-03-17T05:43:29;10.40;61.50
45044;DHT22;30784;48.490;9.688;2024-03-17T05:46:00;10.40;61.60
45044;DHT22;30784;48.490;9.688;2024-03-17T05:48:29;10.30;61.60
45044;DHT22;30784;48.490;9.688;2024-03-17T05:50:54;10.30;61.70
45044;DHT22;30784;48.490;9.688;2024-03-17T05:53:21;10.30;61.80
45044;DHT22;30784;48.490;9.688;2024-03-17T05:55:49;10.30;61.90
45044;DHT22;30784;48.490;9.688;2024-03-17T05:58:15;10.30;61.90
45044;DHT22;30784;48.490;9.688;2024-03-17T06:00:41;10.30;62.00
45044;DHT22;30784;48.490;9.688;2024-03-17T06:03:07;10.30;62.00
45044;DHT22;30784;48.490;9.688;2024-03-17T06:05:33;10.30;62.00
45044;DHT22;30784;48.490;9.688;2024-03-17T06:08:03;10.30;62.00
45044;DHT22;30784;48.490;9.688;2024-03-17T06:10:30;10.40;62.10
45044;DHT22;30784;48.490;9.688;2024-03-17T06:12:56;10.40;62.00
45044;DHT22;30784;48.490;9.688;2024-03-17T06:15:23;10.40;62.10
45044;DHT22;30784;48.490;9.688;2024-03-17T06:17:49;10.40;62.20
45044;DHT22;30784;48.490;9.688;2024-03-17T06:20:22;10.40;62.20
45044;DHT22;30784;48.490;9.688;2024-03-17T06:22:49;10.40;62.20
45044;DHT22;30784;48.490;9.688;2024-03-17T06:25:15;10.40;62.20
45044;DHT22;30784;48.490;9.688;2024-03-17T06:27:40;10.50;62.30
45044;DHT22;30784;48.490;9.688;2024-03-17T06:30:06;10.50;62.30
45044;DHT22;30784;48.490;9.688;2024-03-17T06:32:33;10.50;62.40
45044;DHT22;30784;48.490;9.688;2024-03-17T06:35:01;10.50;62.50
45044;DHT22;30784;48.490;9.688;2024-03-17T06:37:26;10.50;62.50
45044;DHT22;30784;48.490;9.688;2024-03-17T06:39:52;10.60;62.40
45044;DHT22;30784;48.490;9.688;2024-03-17T06:42:18;10.60;62.40
45044;DHT22;30784;48.490;9.688;2024-03-17T06:44:43;10.60;62.30
45044;DHT22;30784;48.490;9.688;2024-03-17T06:47:09;10.70;62.40
45044;DHT22;30784;48.490;9.688;2024-03-17T06:49:34;10.70;62.30
45044;DHT22;30784;48.490;9.688;2024-03-17T06:52:00;10.70;62.30
45044;DHT22;30784;48.490;9.688;2024-03-17T06:54:26;10.80;62.40
45044;DHT22;30784;48.490;9.688;2024-03-17T06:56:52;10.80;62.40
45044;DHT22;30784;48.490;9.688;2024-03-17T06:59:17;10.80;62.50
45044;DHT22;30784;48.490;9.688;2024-03-17T07:01:43;10.90;62.50
45044;DHT22;30784;48.490;9.688;2024-03-17T07:04:10;10.90;62.50
45044;DHT22;30784;48.490;9.688;2024-03-17T07:06:36;10.90;62.60
45044;DHT22;30784;48.490;9.688;2024-03-17T07:09:02;11.00;63.20
45044;DHT22;30784;48.490;9.688;2024-03-17T07:11:28;11.00;62.50
45044;DHT22;30784;48.490;9.688;2024-03-17T07:13:53;11.00;62.60
45044;DHT22;30784;48.490;9.688;2024-03-17T07:16:19;11.10;62.60
45044;DHT22;30784;48.490;9.688;2024-03-17T07:18:47;11.10;62.50
45044;DHT22;30784;48.490;9.688;2024-03-17T07:21:12;11.20;62.90
45044;DHT22;30784;48.490;9.688;2024-03-17T07:23:38;11.20;62.90
45044;DHT22;30784;48.490;9.688;2024-03-17T07:26:04;11.20;62.80
45044;DHT22;30784;48.490;9.688;2024-03-17T07:28:31;11.30;62.80
45044;DHT22;30784;48.490;9.688;2024-03-17T07:30:58;11.40;62.50
45044;DHT22;30784;48.490;9.688;2024-03-17T07:33:26;11.40;62.40
45044;DHT22;30784;48.490;9.688;2024-03-17T07:35:55;11.40;62.10
45044;DHT22;30784;48.490;9.688;2024-03-17T07:38:22;11.40;62.10
45044;DHT22;30784;48.490;9.688;2024-03-17T07:43:22;11.40;62.20
45044;DHT22;30784;48.490;9.688;2024-03-17T07:46:06;11.50;62.40
45044;DHT22;30784;48.490;9.688;2024-03-17T07:48:34;11.50;62.30
45044;DHT22;30784;48.490;9.688;2024-03-17T07:51:05;11.50;62.20
45044;DHT22;30784;48.490;9.688;2024-03-17T07:53:35;11.50;62.10
45044;DHT22;30784;48.490;9.688;2024-03-17T07:58:29;11.60;62.30
45044;DHT22;30784;48.490;9.688;2024-03-17T08:00:58;11.60;62.20
45044;DHT22;30784;48.490;9.688;2024-03-17T08:03:28;11.70;62.00
45044;DHT22;30784;48.490;9.688;2024-03-17T08:05:54;11.70;61.90
45044;DHT22;30784;48.490;9.688;2024-03-17T08:08:20;11.80;61.80
45044;DHT22;30784;48.490;9.688;2024-03-17T08:10:45;11.80;61.70
45044;DHT22;30784;48.490;9.688;2024-03-17T08:13:14;11.80;62.00
45044;DHT22;30784;48.490;9.688;2024-03-17T08:15:44;11.90;62.10
45044;DHT22;30784;48.490;9.688;2024-03-17T08:18:11;11.90;62.20
45044;DHT22;30784;48.490;9.688;2024-03-17T08:20:40;12.00;62.00
45044;DHT22;30784;48.490;9.688;2024-03-17T08:23:06;12.10;62.20
45044;DHT22;30784;48.490;9.688;2024-03-17T08:25:33;12.20;62.10
45044;DHT22;30784;48.490;9.688;2024-03-17T08:28:00;12.30;62.20
45044;DHT22;30784;48.490;9.688;2024-03-17T08:30:26;12.40;62.20
45044;DHT22;30784;48.490;9.688;2024-03-17T08:32:51;12.60;61.90
45044;DHT22;30784;48.490;9.688;2024-03-17T08:35:17;12.70;61.70
45044;DHT22;30784;48.490;9.688;2024-03-17T08:37:42;12.80;61.40
45044;DHT22;30784;48.490;9.688;2024-03-17T08:40:08;12.80;61.00
45044;DHT22;30784;48.490;9.688;2024-03-17T08:42:33;12.90;60.60
45044;DHT22;30784;48.490;9.688;2024-03-17T08:44:59;13.00;60.20
45044;DHT22;30784;48.490;9.688;2024-03-17T08:47:24;13.00;59.90
45044;DHT22;30784;48.490;9.688;2024-03-17T08:49:53;13.10;59.70
45044;DHT22;30784;48.490;9.688;2024-03-17T08:52:18;13.20;59.80
45044;DHT22;30784;48.490;9.688;2024-03-17T08:54:47;13.30;58.90
45044;DHT22;30784;48.490;9.688;2024-03-17T08:57:13;13.40;58.80
45044;DHT22;30784;48.490;9.688;2024-03-17T08:59:39;13.50;58.40
45044;DHT22;30784;48.490;9.688;2024-03-17T09:02:05;13.50;58.10
45044;DHT22;30784;48.490;9.688;2024-03-17T09:04:35;13.60;58.70
45044;DHT22;30784;48.490;9.688;2024-03-17T09:07:01;13.70;58.30
45044;DHT22;30784;48.490;9.688;2024-03-17T09:09:29;13.70;58.30
45044;DHT22;30784;48.490;9.688;2024-03-17T09:11:54;13.80;58.20
45044;DHT22;30784;48.490;9.688;2024-03-17T09:14:20;13.90;58.30
45044;DHT22;30784;48.490;9.688;2024-03-17T09:16:48;13.90;57.70
45044;DHT22;30784;48.490;9.688;2024-03-17T09:19:13;14.00;57.60
45044;DHT22;30784;48.490;9.688;2024-03-17T09:21:39;14.00;57.30
45044;DHT22;30784;48.490;9.688;2024-03-17T09:24:06;14.00;57.40
45044;DHT22;30784;48.490;9.688;2024-03-17T09:26:35;14.00;57.20
45044;DHT22;30784;48.490;9.688;2024-03-17T09:29:03;14.00;57.20
45044;DHT22;30784;48.490;9.688;2024-03-17T09:31:29;14.00;56.70
45044;DHT22;30784;48.490;9.688;2024-03-17T09:33:55;14.00;56.90
45044;DHT22;30784;48.490;9.688;2024-03-17T09:36:21;14.00;56.40
45044;DHT22;30784;48.490;9.688;2024-03-17T09:38:47;14.10;56.80
45044;DHT22;30784;48.490;9.688;2024-03-17T09:41:20;14.10;57.10
45044;DHT22;30784;48.490;9.688;2024-03-17T09:43:47;14.10;57.10
45044;DHT22;30784;48.490;9.688;2024-03-17T09:46:14;14.10;56.30
45044;DHT22;30784;48.490;9.688;2024-03-17T09:48:42;14.20;55.90
45044;DHT22;30784;48.490;9.688;2024-03-17T09:51:18;14.20;55.70
45044;DHT22;30784;48.490;9.688;2024-03-17T09:53:44;14.10;56.00
45044;DHT22;30784;48.490;9.688;2024-03-17T09:56:14;14.20;55.90
45044;DHT22;30784;48.490;9.688;2024-03-17T09:58:41;14.20;55.60
45044;DHT22;30784;48.490;9.688;2024-03-17T10:01:07;14.20;55.90
45044;DHT22;30784;48.490;9.688;2024-03-17T10:03:59;14.20;55.80
45044;DHT22;30784;48.490;9.688;2024-03-17T10:06:29;14.30;56.20
45044;DHT22;30784;48.490;9.688;2024-03-17T10:08:56;14.40;55.40
45044;DHT22;30784;48.490;9.688;2024-03-17T10:11:33;14.40;55.10
45044;DHT22;30784;48.490;9.688;2024-03-17T10:16:27;14.60;55.60
45044;DHT22;30784;48.490;9.688;2024-03-17T10:19:12;14.70;55.40
45044;DHT22;30784;48.490;9.688;2024-03-17T10:21:39;14.90;55.20
45044;DHT22;30784;48.490;9.688;2024-03-17T10:24:23;15.00;54.40
45044;DHT22;30784;48.490;9.688;2024-03-17T10:26:55;15.00;54.30
45044;DHT22;30784;48.490;9.688;2024-03-17T10:29:29;15.10;53.90
45044;DHT22;30784;48.490;9.688;2024-03-17T10:32:01;15.10;54.20
45044;DHT22;30784;48.490;9.688;2024-03-17T10:34:29;15.10;53.50
45044;DHT22;30784;48.490;9.688;2024-03-17T10:37:10;15.10;54.00
45044;DHT22;30784;48.490;9.688;2024-03-17T10:39:37;15.10;53.60
45044;DHT22;30784;48.490;9.688;2024-03-17T10:42:05;15.10;53.50
45044;DHT22;30784;48.490;9.688;2024-03-17T10:44:41;15.10;53.70
45044;DHT22;30784;48.490;9.688;2024-03-17T10:47:21;15.20;54.00
45044;DHT22;30784;48.490;9.688;2024-03-17T10:49:47;15.20;53.40
45044;DHT22;30784;48.490;9.688;2024-03-17T10:52:18;15.30;53.30
45044;DHT22;30784;48.490;9.688;2024-03-17T10:54:48;15.30;52.90
45044;DHT22;30784;48.490;9.688;2024-03-17T10:57:31;15.30;53.30
45044;DHT22;30784;48.490;9.688;2024-03-17T10:59:58;15.30;53.40
45044;DHT22;30784;48.490;9.688;2024-03-17T11:02:27;15.40;52.60
45044;DHT22;30784;48.490;9.688;2024-03-17T11:04:56;15.50;52.00
45044;DHT22;30784;48.490;9.688;2024-03-17T11:07:22;15.50;53.50
45044;DHT22;30784;48.490;9.688;2024-03-17T11:09:50;15.60;51.50
45044;DHT22;30784;48.490;9.688;2024-03-17T11:12:39;15.60;51.20
45044;DHT22;30784;48.490;9.688;2024-03-17T11:20:41;15.70;51.10
45044;DHT22;30784;48.490;9.688;2024-03-17T11:23:07;15.70;49.80
45044;DHT22;30784;48.490;9.688;2024-03-17T11:25:38;15.70;50.00
45044;DHT22;30784;48.490;9.688;2024-03-17T11:28:08;15.80;50.60
45044;DHT22;30784;48.490;9.688;2024-03-17T11:30:50;15.90;49.90
45044;DHT22;30784;48.490;9.688;2024-03-17T11:41:38;16.10;49.00
45044;DHT22;30784;48.490;9.688;2024-03-17T11:44:24;16.10;48.80
45044;DHT22;30784;48.490;9.688;2024-03-17T11:46:55;16.20;49.30
45044;DHT22;30784;48.490;9.688;2024-03-17T11:49:36;16.20;47.80
45044;DHT22;30784;48.490;9.688;2024-03-17T11:52:11;16.30;48.00
45044;DHT22;30784;48.490;9.688;2024-03-17T11:54:40;16.30;48.00
45044;DHT22;30784;48.490;9.688;2024-03-17T11:57:07;16.40;48.30
45044;DHT22;30784;48.490;9.688;2024-03-17T11:59:34;16.50;48.30
45044;DHT22;30784;48.490;9.688;2024-03-17T12:02:00;16.50;47.90
45044;DHT22;30784;48.490;9.688;2024-03-17T12:04:27;16.60;47.80
45044;DHT22;30784;48.490;9.688;2024-03-17T12:06:58;16.60;47.20
45044;DHT22;30784;48.490;9.688;2024-03-17T12:09:28;16.70;46.70
45044;DHT22;30784;48.490;9.688;2024-03-17T12:12:00;16.70;46.40
45044;DHT22;30784;48.490;9.688;2024-03-17T12:14:26;16.70;46.90
45044;DHT22;30784;48.490;9.688;2024-03-17T12:16:57;16.70;46.90
45044;DHT22;30784;48.490;9.688;2024-03-17T12:19:24;16.70;46.70
45044;DHT22;30784;48.490;9.688;2024-03-17T12:21:55;16.70;46.90
45044;DHT22;30784;48.490;9.688;2024-03-17T12:24:26;16.70;46.90
45044;DHT22;30784;48.490;9.688;2024-03-17T12:26:53;16.70;46.70
45044;DHT22;30784;48.490;9.688;2024-03-17T12:29:35;16.80;46.60
45044;DHT22;30784;48.490;9.688;2024-03-17T12:32:26;16.80;47.10
45044;DHT22;30784;48.490;9.688;2024-03-17T12:34:55;16.80;47.00
45044;DHT22;30784;48.490;9.688;2024-03-17T12:37:23;16.90;46.10
45044;DHT22;30784;48.490;9.688;2024-03-17T12:39:50;16.90;46.30
45044;DHT22;30784;48.490;9.688;2024-03-17T12:42:22;17.00;46.20
45044;DHT22;30784;48.490;9.688;2024-03-17T12:44:58;17.00;46.00
45044;DHT22;30784;48.490;9.688;2024-03-17T12:47:29;17.10;46.50
45044;DHT22;30784;48.490;9.688;2024-03-17T12:49:57;17.10;45.90
45044;DHT22;30784;48.490;9.688;2024-03-17T12:52:30;17.10;45.80
45044;DHT22;30784;48.490;9.688;2024-03-17T12:57:46;17.20;45.60
45044;DHT22;30784;48.490;9.688;2024-03-17T13:00:31;17.30;45.60
45044;DHT22;30784;48.490;9.688;2024-03-17T13:03:07;17.30;45.50
45044;DHT22;30784;48.490;9.688;2024-03-17T13:05:34;17.30;45.40
45044;DHT22;30784;48.490;9.688;2024-03-17T13:08:00;17.40;45.40
45044;DHT22;30784;48.490;9.688;2024-03-17T13:10:27;17.40;45.50
45044;DHT22;30784;48.490;9.688;2024-03-17T13:13:07;17.50;45.10
45044;DHT22;30784;48.490;9.688;2024-03-17T13:15:33;17.40;45.00
45044;DHT22;30784;48.490;9.688;2024-03-17T13:18:02;17.40;45.00
45044;DHT22;30784;48.490;9.688;2024-03-17T13:20:30;17.50;44.90
45044;DHT22;30784;48.490;9.688;2024-03-17T13:22:56;17.50;44.60
45044;DHT22;30784;48.490;9.688;2024-03-17T13:25:24;17.40;44.40
45044;DHT22;30784;48.490;9.688;2024-03-17T13:27:52;17.40;44.10
45044;DHT22;30784;48.490;9.688;2024-03-17T13:30:19;17.40;44.10
45044;DHT22;30784;48.490;9.688;2024-03-17T13:32:45;17.40;44.20
45044;DHT22;30784;48.490;9.688;2024-03-17T13:35:16;17.40;43.80
45044;DHT22;30784;48.490;9.688;2024-03-17T13:37:46;17.30;43.30
45044;DHT22;30784;48.490;9.688;2024-03-17T13:40:13;17.30;43.50
45044;DHT22;30784;48.490;9.688;2024-03-17T13:42:42;17.30;43.50
45044;DHT22;30784;48.490;9.688;2024-03-17T13:45:11;17.20;43.30
45044;DHT22;30784;48.490;9.688;2024-03-17T13:47:37;17.20;43.80
45044;DHT22;30784;48.490;9.688;2024-03-17T13:50:03;17.10;43.60
45044;DHT22;30784;48.490;9.688;2024-03-17T13:52:32;17.10;43.70
45044;DHT22;30784;48.490;9.688;2024-03-17T13:54:58;17.10;43.80
45044;DHT22;30784;48.490;9.688;2024-03-17T13:57:24;17.10;43.90
45044;DHT22;30784;48.490;9.688;2024-03-17T13:59:50;17.10;44.00
45044;DHT22;30784;48.490;9.688;2024-03-17T14:02:17;17.10;43.50
45044;DHT22;30784;48.490;9.688;2024-03-17T14:04:44;17.10;43.70
45044;DHT22;30784;48.490;9.688;2024-03-17T14:07:09;17.10;43.60
45044;DHT22;30784;48.490;9.688;2024-03-17T14:09:35;17.10;43.90
45044;DHT22;30784;48.490;9.688;2024-03-17T14:12:00;17.00;43.60
45044;DHT22;30784;48.490;9.688;2024-03-17T14:14:26;17.00;43.30
45044;DHT22;30784;48.490;9.688;2024-03-17T14:16:51;17.00;43.40
45044;DHT22;30784;48.490;9.688;2024-03-17T14:19:17;17.00;43.50
45044;DHT22;30784;48.490;9.688;2024-03-17T14:21:42;17.00;43.40
45044;DHT22;30784;48.490;9.688;2024-03-17T14:24:08;17.00;43.50
45044;DHT22;30784;48.490;9.688;2024-03-17T14:26:35;17.00;43.60
45044;DHT22;30784;48.490;9.688;2024-03-17T14:29:02;17.00;43.70
45044;DHT22;30784;48.490;9.688;2024-03-17T14:31:31;17.00;43.90
45044;DHT22;30784;48.490;9.688;2024-03-17T14:33:58;17.00;43.60
45044;DHT22;30784;48.490;9.688;2024-03-17T14:36:24;17.10;44.30
45044;DHT22;30784;48.490;9.688;2024-03-17T14:38:53;17.10;43.50
45044;DHT22;30784;48.490;9.688;2024-03-17T14:41:19;17.10;43.70
45044;DHT22;30784;48.490;9.688;2024-03-17T14:43:45;17.10;43.50
45044;DHT22;30784;48.490;9.688;2024-03-17T14:46:11;17.10;43.70
45044;DHT22;30784;48.490;9.688;2024-03-17T14:48:39;17.10;43.70
45044;DHT22;30784;48.490;9.688;2024-03-17T14:51:05;17.20;43.70
45044;DHT22;30784;48.490;9.688;2024-03-17T14:53:30;17.20;43.60
45044;DHT22;30784;48.490;9.688;2024-03-17T14:55:56;17.30;43.60
45044;DHT22;30784;48.490;9.688;2024-03-17T14:58:21;17.30;43.40
45044;DHT22;30784;48.490;9.688;2024-03-17T15:00:47;17.40;43.60
45044;DHT22;30784;48.490;9.688;2024-03-17T15:03:13;17.50;43.50
45044;DHT22;30784;48.490;9.688;2024-03-17T15:05:39;17.50;43.50
45044;DHT22;30784;48.490;9.688;2024-03-17T15:08:05;17.50;43.30
45044;DHT22;30784;48.490;9.688;2024-03-17T15:10:31;17.50;43.40
45044;DHT22;30784;48.490;9.688;2024-03-17T15:12:57;17.60;43.40
45044;DHT22;30784;48.490;9.688;2024-03-17T15:15:22;17.60;43.40
45044;DHT22;30784;48.490;9.688;2024-03-17T15:17:48;17.60;43.30
45044;DHT22;30784;48.490;9.688;2024-03-17T15:20:16;17.60;43.20
45044;DHT22;30784;48.490;9.688;2024-03-17T15:22:44;17.60;43.20
45044;DHT22;30784;48.490;9.688;2024-03-17T15:25:10;17.70;43.10
45044;DHT22;30784;48.490;9.688;2024-03-17T15:27:37;17.60;43.00
45044;DHT22;30784;48.490;9.688;2024-03-17T15:30:03;17.70;43.10
45044;DHT22;30784;48.490;9.688;2024-03-17T15:32:29;17.60;43.00
45044;DHT22;30784;48.490;9.688;2024-03-17T15:34:54;17.70;42.90
45044;DHT22;30784;48.490;9.688;2024-03-17T15:37:20;17.70;43.00
45044;DHT22;30784;48.490;9.688;2024-03-17T15:39:46;17.60;42.80
45044;DHT22;30784;48.490;9.688;2024-03-17T15:42:12;17.60;42.90
45044;DHT22;30784;48.490;9.688;2024-03-17T15:44:38;17.60;42.80
45044;DHT22;30784;48.490;9.688;2024-03-17T15:47:05;17.60;42.60
45044;DHT22;30784;48.490;9.688;2024-03-17T15:49:31;17.60;42.90
45044;DHT22;30784;48.490;9.688;2024-03-17T15:51:56;17.50;42.90
45044;DHT22;30784;48.490;9.688;2024-03-17T15:54:23;17.50;42.90
45044;DHT22;30784;48.490;9.688;2024-03-17T15:56:48;17.50;43.00
45044;DHT22;30784;48.490;9.688;2024-03-17T15:59:14;17.40;43.00
45044;DHT22;30784;48.490;9.688;2024-03-17T16:01:40;17.40;42.90